sensor_id;sensor_type;location;lat;lon;timestamp;pressure;altitude;pressure_sealevel;temperature;humidity
12991;BME280;6560;57.692;11.958;2023-08-12T00:00:31;101340.22;;;33.55;77.56
12991;BME280;6560;57.692;11.958;2023-08-12T00:02:58;101342.31;;;34.19;76.48
12991;BME280;6560;57.692;11.958;2023-08-12T00:05:24;101337.97;;;34.00;75.38
12991;BME280;6560;57.692;11.958;2023-08-12T00:07:52;101322.00;;;33.54;78.12
12991;BME280;6560;57.692;11.958;2023-08-12T00:10:18;101338.69;;;34.14;77.33
12991;BME280;6560;57.692;11.958;2023-08-12T00:12:45;101327.22;;;35.21;73.16
12991;BME280;6560;57.692;11.958;2023-08-12T00:15:10;101338.66;;;34.22;73.58
12991;BME280;6560;57.692;11.958;2023-08-12T00:17:36;101325.03;;;34.85;69.34
12991;BME280;6560;57.692;11.958;2023-08-12T00:20:03;101336.25;;;32.80;80.70
12991;BME280;6560;57.692;11.958;2023-08-12T00:22:31;101335.59;;;32.23;83.77
12991;BME280;6560;57.692;11.958;2023-08-12T00:24:56;101338.22;;;32.49;83.72
12991;BME280;6560;57.692;11.958;2023-08-12T00:27:22;101331.41;;;33.25;81.61
12991;BME280;6560;57.692;11.958;2023-08-12T00:29:49;101334.69;;;33.63;79.05
12991;BME280;6560;57.692;11.958;2023-08-12T00:32:15;101338.09;;;33.88;78.53
12991;BME280;6560;57.692;11.958;2023-08-12T00:34:40;101331.16;;;33.49;81.06
12991;BME280;6560;57.692;11.958;2023-08-12T00:37:06;101336.84;;;34.18;76.42
12991;BME280;6560;57.692;11.958;2023-08-12T00:39:31;101332.75;;;33.77;78.09
12991;BME280;6560;57.692;11.958;2023-08-12T00:41:57;101337.41;;;33.61;78.18
12991;BME280;6560;57.692;11.958;2023-08-12T00:44:23;101339.34;;;33.53;82.47
12991;BME280;6560;57.692;11.958;2023-08-12T00:46:48;101329.75;;;32.96;85.82
12991;BME280;6560;57.692;11.958;2023-08-12T00:49:16;101320.91;;;32.53;87.33
12991;BME280;6560;57.692;11.958;2023-08-12T00:51:43;101327.47;;;31.99;89.09
12991;BME280;6560;57.692;11.958;2023-08-12T00:54:15;101290.13;;;32.19;90.49
12991;BME280;6560;57.692;11.958;2023-08-12T00:56:42;101324.63;;;33.65;83.23
12991;BME280;6560;57.692;11.958;2023-08-12T00:59:09;101320.91;;;33.75;82.59
12991;BME280;6560;57.692;11.958;2023-08-12T01:01:40;101315.41;;;33.78;96.22
12991;BME280;6560;57.692;11.958;2023-08-12T01:04:08;101317.25;;;32.53;100.00
12991;BME280;6560;57.692;11.958;2023-08-12T01:06:36;101310.03;;;32.44;100.00
12991;BME280;6560;57.692;11.958;2023-08-12T01:09:06;101308.94;;;32.78;97.75
12991;BME280;6560;57.692;11.958;2023-08-12T01:11:49;101312.28;;;33.18;99.65
12991;BME280;6560;57.692;11.958;2023-08-12T01:14:41;101315.31;;;32.76;99.28
12991;BME280;6560;57.692;11.958;2023-08-12T01:17:11;101314.03;;;34.17;87.28
12991;BME280;6560;57.692;11.958;2023-08-12T01:19:40;101316.09;;;34.72;83.00
12991;BME280;6560;57.692;11.958;2023-08-12T01:22:09;101301.88;;;34.41;83.35
12991;BME280;6560;57.692;11.958;2023-08-12T01:24:42;101300.28;;;33.38;87.99
12991;BME280;6560;57.692;11.958;2023-08-12T01:27:27;101315.03;;;34.09;87.40
12991;BME280;6560;57.692;11.958;2023-08-12T01:29:53;101316.78;;;34.14;85.27
12991;BME280;6560;57.692;11.958;2023-08-12T01:32:27;101296.78;;;34.11;84.58
12991;BME280;6560;57.692;11.958;2023-08-12T01:35:17;101303.72;;;34.40;83.93
12991;BME280;6560;57.692;11.958;2023-08-12T01:38:05;101295.00;;;34.78;81.29
12991;BME280;6560;57.692;11.958;2023-08-12T01:40:32;101301.59;;;34.59;81.41
12991;BME280;6560;57.692;11.958;2023-08-12T01:43:00;101296.03;;;34.67;80.98
12991;BME280;6560;57.692;11.958;2023-08-12T01:45:27;101295.09;;;34.69;80.03
12991;BME280;6560;57.692;11.958;2023-08-12T01:47:52;101242.94;;;34.11;81.23
12991;BME280;6560;57.692;11.958;2023-08-12T01:50:19;101295.50;;;34.40;80.92
12991;BME280;6560;57.692;11.958;2023-08-12T01:52:46;101295.41;;;35.08;78.83
12991;BME280;6560;57.692;11.958;2023-08-12T01:55:32;101282.53;;;34.53;78.06
12991;BME280;6560;57.692;11.958;2023-08-12T01:58:00;101291.25;;;34.83;79.21
12991;BME280;6560;57.692;11.958;2023-08-12T02:00:30;101295.72;;;34.88;78.86
12991;BME280;6560;57.692;11.958;2023-08-12T02:02:55;101292.47;;;35.22;77.57
12991;BME280;6560;57.692;11.958;2023-08-12T02:05:21;101284.84;;;34.85;78.03
12991;BME280;6560;57.692;11.958;2023-08-12T02:07:46;101293.75;;;34.98;77.71
12991;BME280;6560;57.692;11.958;2023-08-12T02:10:12;101293.56;;;35.10;76.15
12991;BME280;6560;57.692;11.958;2023-08-12T02:12:39;101283.88;;;34.22;80.21
12991;BME280;6560;57.692;11.958;2023-08-12T02:15:05;101288.22;;;34.39;79.34
12991;BME280;6560;57.692;11.958;2023-08-12T02:17:52;101291.19;;;34.87;77.58
12991;BME280;6560;57.692;11.958;2023-08-12T02:20:18;101288.56;;;34.11;79.69
12991;BME280;6560;57.692;11.958;2023-08-12T02:22:44;101255.50;;;34.27;79.30
12991;BME280;6560;57.692;11.958;2023-08-12T02:25:10;101281.47;;;33.01;85.00
12991;BME280;6560;57.692;11.958;2023-08-12T02:27:35;101277.63;;;33.27;84.07
12991;BME280;6560;57.692;11.958;2023-08-12T02:30:01;101277.06;;;32.76;87.92
12991;BME280;6560;57.692;11.958;2023-08-12T02:32:26;101274.47;;;32.55;88.74
12991;BME280;6560;57.692;11.958;2023-08-12T02:34:52;101278.03;;;32.72;89.80
12991;BME280;6560;57.692;11.958;2023-08-12T02:37:17;101270.47;;;33.06;87.99
12991;BME280;6560;57.692;11.958;2023-08-12T02:39:43;101261.44;;;32.98;86.97
12991;BME280;6560;57.692;11.958;2023-08-12T02:42:08;101270.66;;;32.86;89.04
12991;BME280;6560;57.692;11.958;2023-08-12T02:44:35;101273.06;;;33.27;85.42
12991;BME280;6560;57.692;11.958;2023-08-12T02:47:02;101261.66;;;33.68;85.81
12991;BME280;6560;57.692;11.958;2023-08-12T02:49:28;101276.91;;;32.99;86.79
12991;BME280;6560;57.692;11.958;2023-08-12T02:51:53;101233.19;;;32.96;87.30
12991;BME280;6560;57.692;11.958;2023-08-12T02:54:19;101273.06;;;33.26;88.06
12991;BME280;6560;57.692;11.958;2023-08-12T02:56:44;101264.81;;;33.30;87.64
12991;BME280;6560;57.692;11.958;2023-08-12T02:59:10;101276.06;;;32.91;88.54
12991;BME280;6560;57.692;11.958;2023-08-12T03:01:36;101274.44;;;33.72;85.15
12991;BME280;6560;57.692;11.958;2023-08-12T03:04:03;101255.41;;;34.35;81.62
12991;BME280;6560;57.692;11.958;2023-08-12T03:06:28;101251.75;;;34.36;81.72
12991;BME280;6560;57.692;11.958;2023-08-12T03:08:55;101251.09;;;34.80;78.34
12991;BME280;6560;57.692;11.958;2023-08-12T03:11:24;101268.63;;;33.09;83.46
12991;BME280;6560;57.692;11.958;2023-08-12T03:13:50;101270.47;;;33.04;84.92
12991;BME280;6560;57.692;11.958;2023-08-12T03:16:17;101252.66;;;35.48;76.45
12991;BME280;6560;57.692;11.958;2023-08-12T03:18:43;101241.63;;;32.64;86.22
12991;BME280;6560;57.692;11.958;2023-08-12T03:21:08;101238.59;;;33.03;86.79
12991;BME280;6560;57.692;11.958;2023-08-12T03:23:35;101265.78;;;33.28;85.10
12991;BME280;6560;57.692;11.958;2023-08-12T03:26:01;101267.38;;;34.28;81.70
12991;BME280;6560;57.692;11.958;2023-08-12T03:28:27;101254.78;;;33.34;84.07
12991;BME280;6560;57.692;11.958;2023-08-12T03:30:53;101265.69;;;34.15;79.05
12991;BME280;6560;57.692;11.958;2023-08-12T03:33:20;101259.06;;;33.59;83.44
12991;BME280;6560;57.692;11.958;2023-08-12T03:35:49;101268.66;;;33.05;83.24
12991;BME280;6560;57.692;11.958;2023-08-12T03:38:15;101270.84;;;32.53;88.83
12991;BME280;6560;57.692;11.958;2023-08-12T03:40:43;101257.38;;;32.12;91.99
12991;BME280;6560;57.692;11.958;2023-08-12T03:43:09;101271.53;;;32.88;90.84
12991;BME280;6560;57.692;11.958;2023-08-12T03:45:44;101270.59;;;32.92;88.47
12991;BME280;6560;57.692;11.958;2023-08-12T03:48:10;101270.97;;;32.33;91.39
12991;BME280;6560;57.692;11.958;2023-08-12T03:50:38;101266.75;;;33.20;87.26
12991;BME280;6560;57.692;11.958;2023-08-12T03:53:04;101251.47;;;32.92;87.92
12991;BME280;6560;57.692;11.958;2023-08-12T03:55:31;101244.88;;;33.20;86.34
12991;BME280;6560;57.692;11.958;2023-08-12T03:57:58;101259.44;;;33.16;86.63
12991;BME280;6560;57.692;11.958;2023-08-12T04:00:23;101233.19;;;33.87;82.66
12991;BME280;6560;57.692;11.958;2023-08-12T04:02:49;101257.97;;;33.78;81.64
12991;BME280;6560;57.692;11.958;2023-08-12T04:05:14;101221.41;;;32.92;87.27
12991;BME280;6560;57.692;11.958;2023-08-12T04:07:40;101237.56;;;33.16;86.95
12991;BME280;6560;57.692;11.958;2023-08-12T04:10:06;101247.13;;;33.65;82.68
12991;BME280;6560;57.692;11.958;2023-08-12T04:12:32;101251.06;;;33.41;85.28
12991;BME280;6560;57.692;11.958;2023-08-12T04:14:57;101246.22;;;33.67;84.10
12991;BME280;6560;57.692;11.958;2023-08-12T04:17:23;101245.47;;;33.48;84.29
12991;BME280;6560;57.692;11.958;2023-08-12T04:19:52;101249.81;;;33.72;85.00
12991;BME280;6560;57.692;11.958;2023-08-12T04:22:19;101246.91;;;34.53;80.94
12991;BME280;6560;57.692;11.958;2023-08-12T04:24:44;101222.94;;;34.69;79.05
12991;BME280;6560;57.692;11.958;2023-08-12T04:27:10;101245.25;;;33.73;81.36
12991;BME280;6560;57.692;11.958;2023-08-12T04:29:36;101249.78;;;35.04;78.36
12991;BME280;6560;57.692;11.958;2023-08-12T04:32:01;101226.25;;;35.43;76.25
12991;BME280;6560;57.692;11.958;2023-08-12T04:34:28;101230.03;;;35.37;75.98
12991;BME280;6560;57.692;11.958;2023-08-12T04:36:54;101244.28;;;35.56;74.38
12991;BME280;6560;57.692;11.958;2023-08-12T04:39:21;101247.44;;;35.33;74.61
12991;BME280;6560;57.692;11.958;2023-08-12T04:41:47;101233.25;;;33.86;79.85
12991;BME280;6560;57.692;11.958;2023-08-12T04:44:13;101243.66;;;34.88;77.43
12991;BME280;6560;57.692;11.958;2023-08-12T04:46:39;101228.94;;;34.94;75.89
12991;BME280;6560;57.692;11.958;2023-08-12T04:49:04;101233.38;;;35.02;77.03
12991;BME280;6560;57.692;11.958;2023-08-12T04:51:30;101233.28;;;35.58;75.07
12991;BME280;6560;57.692;11.958;2023-08-12T04:53:56;101233.47;;;34.39;78.69
12991;BME280;6560;57.692;11.958;2023-08-12T04:56:21;101243.59;;;34.31;78.10
12991;BME280;6560;57.692;11.958;2023-08-12T04:58:47;101235.94;;;34.56;78.00
12991;BME280;6560;57.692;11.958;2023-08-12T05:01:12;101241.53;;;35.05;76.63
12991;BME280;6560;57.692;11.958;2023-08-12T05:03:38;101239.91;;;35.46;74.92
12991;BME280;6560;57.692;11.958;2023-08-12T05:06:03;101240.13;;;34.82;76.28
12991;BME280;6560;57.692;11.958;2023-08-12T05:08:30;101219.97;;;35.36;75.16
12991;BME280;6560;57.692;11.958;2023-08-12T05:10:55;101237.75;;;34.57;77.85
12991;BME280;6560;57.692;11.958;2023-08-12T05:13:21;101252.47;;;34.50;79.25
12991;BME280;6560;57.692;11.958;2023-08-12T05:15:48;101227.09;;;34.37;78.43
12991;BME280;6560;57.692;11.958;2023-08-12T05:18:14;101244.97;;;34.61;78.42
12991;BME280;6560;57.692;11.958;2023-08-12T05:20:41;101240.28;;;34.05;79.95
12991;BME280;6560;57.692;11.958;2023-08-12T05:23:07;101240.34;;;35.20;76.36
12991;BME280;6560;57.692;11.958;2023-08-12T05:25:32;101261.78;;;35.50;75.17
12991;BME280;6560;57.692;11.958;2023-08-12T05:27:58;101242.97;;;35.29;74.87
12991;BME280;6560;57.692;11.958;2023-08-12T05:30:24;101260.69;;;34.49;77.96
12991;BME280;6560;57.692;11.958;2023-08-12T05:32:50;101265.09;;;33.93;80.10
12991;BME280;6560;57.692;11.958;2023-08-12T05:35:16;101250.63;;;34.52;79.63
12991;BME280;6560;57.692;11.958;2023-08-12T05:37:41;101264.63;;;34.29;80.78
12991;BME280;6560;57.692;11.958;2023-08-12T05:40:10;101246.69;;;34.04;79.58
12991;BME280;6560;57.692;11.958;2023-08-12T05:42:37;101262.94;;;33.35;83.35
12991;BME280;6560;57.692;11.958;2023-08-12T05:45:03;101257.75;;;34.62;79.17
12991;BME280;6560;57.692;11.958;2023-08-12T05:47:29;101266.69;;;34.09;81.12
12991;BME280;6560;57.692;11.958;2023-08-12T05:49:54;101258.38;;;35.36;78.10
12991;BME280;6560;57.692;11.958;2023-08-12T05:52:20;101251.06;;;34.83;77.84
12991;BME280;6560;57.692;11.958;2023-08-12T05:54:45;101247.66;;;35.19;76.52
12991;BME280;6560;57.692;11.958;2023-08-12T05:57:11;101241.84;;;35.87;73.84
12991;BME280;6560;57.692;11.958;2023-08-12T05:59:36;101246.31;;;35.91;73.13
12991;BME280;6560;57.692;11.958;2023-08-12T06:02:02;101238.44;;;35.27;74.15
12991;BME280;6560;57.692;11.958;2023-08-12T06:04:27;101265.13;;;35.65;73.64
12991;BME280;6560;57.692;11.958;2023-08-12T06:06:53;101242.41;;;35.58;74.01
12991;BME280;6560;57.692;11.958;2023-08-12T06:09:18;101236.50;;;35.32;74.56
12991;BME280;6560;57.692;11.958;2023-08-12T06:11:44;101255.13;;;35.64;74.11
12991;BME280;6560;57.692;11.958;2023-08-12T06:14:09;101254.69;;;34.85;76.47
12991;BME280;6560;57.692;11.958;2023-08-12T06:16:35;101255.97;;;35.16;75.25
12991;BME280;6560;57.692;11.958;2023-08-12T06:19:00;101270.75;;;33.75;81.02
12991;BME280;6560;57.692;11.958;2023-08-12T06:21:26;101257.84;;;34.55;79.18
12991;BME280;6560;57.692;11.958;2023-08-12T06:23:52;101253.78;;;34.85;79.91
12991;BME280;6560;57.692;11.958;2023-08-12T06:26:17;101237.66;;;35.69;76.36
12991;BME280;6560;57.692;11.958;2023-08-12T06:28:43;101246.16;;;35.54;74.64
12991;BME280;6560;57.692;11.958;2023-08-12T06:31:08;101261.97;;;35.40;75.70
12991;BME280;6560;57.692;11.958;2023-08-12T06:33:34;101244.56;;;35.41;75.13
12991;BME280;6560;57.692;11.958;2023-08-12T06:35:59;101243.03;;;34.69;77.46
12991;BME280;6560;57.692;11.958;2023-08-12T06:38:25;101259.47;;;35.75;75.89
12991;BME280;6560;57.692;11.958;2023-08-12T06:40:51;101254.63;;;35.40;76.51
12991;BME280;6560;57.692;11.958;2023-08-12T06:43:16;101246.56;;;35.80;76.29
12991;BME280;6560;57.692;11.958;2023-08-12T06:45:42;101237.09;;;35.97;75.42
12991;BME280;6560;57.692;11.958;2023-08-12T06:48:07;101230.19;;;35.76;76.25
12991;BME280;6560;57.692;11.958;2023-08-12T06:50:33;101240.59;;;36.03;75.70
12991;BME280;6560;57.692;11.958;2023-08-12T06:52:59;101258.19;;;35.93;76.51
12991;BME280;6560;57.692;11.958;2023-08-12T06:55:24;101247.72;;;36.12;75.52
12991;BME280;6560;57.692;11.958;2023-08-12T06:57:50;101264.34;;;36.47;74.17
12991;BME280;6560;57.692;11.958;2023-08-12T07:00:16;101250.66;;;36.44;73.43
12991;BME280;6560;57.692;11.958;2023-08-12T07:02:42;101246.91;;;36.08;74.32
12991;BME280;6560;57.692;11.958;2023-08-12T07:05:08;101249.47;;;36.16;73.74
12991;BME280;6560;57.692;11.958;2023-08-12T07:07:34;101269.91;;;35.55;76.50
12991;BME280;6560;57.692;11.958;2023-08-12T07:10:00;101270.16;;;36.75;74.09
12991;BME280;6560;57.692;11.958;2023-08-12T07:12:26;101269.03;;;36.01;75.46
12991;BME280;6560;57.692;11.958;2023-08-12T07:14:52;101268.78;;;36.54;74.67
12991;BME280;6560;57.692;11.958;2023-08-12T07:17:17;101277.28;;;35.99;75.96
12991;BME280;6560;57.692;11.958;2023-08-12T07:19:44;101283.41;;;36.12;75.82
12991;BME280;6560;57.692;11.958;2023-08-12T07:22:09;101284.19;;;36.20;75.78
12991;BME280;6560;57.692;11.958;2023-08-12T07:24:35;101278.19;;;36.00;75.49
12991;BME280;6560;57.692;11.958;2023-08-12T07:27:00;101272.53;;;35.61;78.03
12991;BME280;6560;57.692;11.958;2023-08-12T07:29:26;101273.59;;;35.52;79.44
12991;BME280;6560;57.692;11.958;2023-08-12T07:31:52;101240.34;;;35.20;80.99
12991;BME280;6560;57.692;11.958;2023-08-12T07:34:17;101267.69;;;35.26;83.51
12991;BME280;6560;57.692;11.958;2023-08-12T07:36:43;101258.84;;;35.60;83.83
12991;BME280;6560;57.692;11.958;2023-08-12T07:39:09;101261.94;;;35.41;86.45
12991;BME280;6560;57.692;11.958;2023-08-12T07:41:34;101248.97;;;35.97;85.95
12991;BME280;6560;57.692;11.958;2023-08-12T07:44:00;101278.00;;;36.09;86.51
12991;BME280;6560;57.692;11.958;2023-08-12T07:46:27;101287.09;;;36.54;85.52
12991;BME280;6560;57.692;11.958;2023-08-12T07:48:56;101257.94;;;36.87;83.96
12991;BME280;6560;57.692;11.958;2023-08-12T07:51:23;101270.66;;;37.28;82.55
12991;BME280;6560;57.692;11.958;2023-08-12T07:53:49;101231.81;;;37.04;84.04
12991;BME280;6560;57.692;11.958;2023-08-12T07:56:16;101250.81;;;37.15;83.98
12991;BME280;6560;57.692;11.958;2023-08-12T07:58:41;101255.91;;;38.57;82.08
12991;BME280;6560;57.692;11.958;2023-08-12T08:01:06;101257.16;;;38.75;81.77
12991;BME280;6560;57.692;11.958;2023-08-12T08:03:34;101244.72;;;38.89;80.56
12991;BME280;6560;57.692;11.958;2023-08-12T08:05:59;101245.56;;;38.91;81.76
12991;BME280;6560;57.692;11.958;2023-08-12T08:08:25;101274.59;;;38.75;81.81
12991;BME280;6560;57.692;11.958;2023-08-12T08:10:50;101282.81;;;38.49;81.44
12991;BME280;6560;57.692;11.958;2023-08-12T08:13:17;101286.66;;;38.42;80.72
12991;BME280;6560;57.692;11.958;2023-08-12T08:15:42;101288.38;;;38.75;79.87
12991;BME280;6560;57.692;11.958;2023-08-12T08:18:08;101280.22;;;39.00;77.98
12991;BME280;6560;57.692;11.958;2023-08-12T08:20:34;101295.66;;;38.78;77.20
12991;BME280;6560;57.692;11.958;2023-08-12T08:23:00;101307.16;;;38.33;78.38
12991;BME280;6560;57.692;11.958;2023-08-12T08:25:26;101272.06;;;37.76;78.95
12991;BME280;6560;57.692;11.958;2023-08-12T08:27:53;101301.84;;;37.95;79.11
12991;BME280;6560;57.692;11.958;2023-08-12T08:30:18;101297.78;;;37.75;80.88
12991;BME280;6560;57.692;11.958;2023-08-12T08:32:44;101298.91;;;38.92;77.50
12991;BME280;6560;57.692;11.958;2023-08-12T08:35:12;101291.06;;;39.06;76.30
12991;BME280;6560;57.692;11.958;2023-08-12T08:37:37;101272.88;;;38.73;76.14
12991;BME280;6560;57.692;11.958;2023-08-12T08:40:04;101297.69;;;38.73;78.14
12991;BME280;6560;57.692;11.958;2023-08-12T08:42:30;101287.56;;;39.01;77.23
12991;BME280;6560;57.692;11.958;2023-08-12T08:45:00;101283.38;;;39.16;75.21
12991;BME280;6560;57.692;11.958;2023-08-12T08:47:47;101284.06;;;38.66;76.94
12991;BME280;6560;57.692;11.958;2023-08-12T08:50:14;101285.81;;;38.69;77.52
12991;BME280;6560;57.692;11.958;2023-08-12T08:52:40;101297.66;;;38.43;78.41
12991;BME280;6560;57.692;11.958;2023-08-12T08:55:08;101300.31;;;38.46;77.89
12991;BME280;6560;57.692;11.958;2023-08-12T08:57:35;101290.38;;;38.41;76.57
12991;BME280;6560;57.692;11.958;2023-08-12T09:00:03;101297.53;;;38.77;75.85
12991;BME280;6560;57.692;11.958;2023-08-12T09:02:29;101288.22;;;39.35;73.93
12991;BME280;6560;57.692;11.958;2023-08-12T09:04:55;101272.81;;;39.02;73.20
12991;BME280;6560;57.692;11.958;2023-08-12T09:07:22;101289.16;;;39.34;73.75
12991;BME280;6560;57.692;11.958;2023-08-12T09:09:51;101284.72;;;39.83;71.83
12991;BME280;6560;57.692;11.958;2023-08-12T09:12:18;101285.91;;;39.74;71.96
12991;BME280;6560;57.692;11.958;2023-08-12T09:14:44;101284.00;;;39.52;72.95
12991;BME280;6560;57.692;11.958;2023-08-12T09:17:10;101285.69;;;40.30;72.05
12991;BME280;6560;57.692;11.958;2023-08-12T09:19:36;101292.59;;;40.63;71.11
12991;BME280;6560;57.692;11.958;2023-08-12T09:22:04;101298.94;;;39.71;73.23
12991;BME280;6560;57.692;11.958;2023-08-12T09:24:32;101295.19;;;39.19;72.26
12991;BME280;6560;57.692;11.958;2023-08-12T09:27:01;101300.38;;;38.74;73.12
12991;BME280;6560;57.692;11.958;2023-08-12T09:29:31;101305.13;;;38.98;71.54
12991;BME280;6560;57.692;11.958;2023-08-12T09:32:17;101303.91;;;39.07;72.00
12991;BME280;6560;57.692;11.958;2023-08-12T09:34:52;101292.38;;;39.73;68.50
12991;BME280;6560;57.692;11.958;2023-08-12T09:37:23;101286.34;;;39.62;68.73
12991;BME280;6560;57.692;11.958;2023-08-12T09:39:50;101287.75;;;39.74;69.42
12991;BME280;6560;57.692;11.958;2023-08-12T09:42:17;101282.28;;;39.48;69.34
12991;BME280;6560;57.692;11.958;2023-08-12T09:44:43;101288.16;;;39.38;68.69
12991;BME280;6560;57.692;11.958;2023-08-12T09:47:11;101260.91;;;39.26;69.00
12991;BME280;6560;57.692;11.958;2023-08-12T09:49:38;101283.63;;;40.82;65.57
12991;BME280;6560;57.692;11.958;2023-08-12T09:52:04;101289.19;;;39.86;66.61
12991;BME280;6560;57.692;11.958;2023-08-12T09:54:34;101281.41;;;39.19;63.97
12991;BME280;6560;57.692;11.958;2023-08-12T09:57:02;101290.72;;;39.17;65.92
12991;BME280;6560;57.692;11.958;2023-08-12T09:59:33;101287.53;;;39.55;63.58
12991;BME280;6560;57.692;11.958;2023-08-12T10:02:04;101284.72;;;39.30;63.72
12991;BME280;6560;57.692;11.958;2023-08-12T10:04:41;101268.38;;;39.51;61.91
12991;BME280;6560;57.692;11.958;2023-08-12T10:07:11;101284.25;;;39.95;62.44
12991;BME280;6560;57.692;11.958;2023-08-12T10:09:41;101275.50;;;39.58;63.47
12991;BME280;6560;57.692;11.958;2023-08-12T10:12:09;101277.78;;;39.70;63.59
12991;BME280;6560;57.692;11.958;2023-08-12T10:14:35;101279.50;;;40.22;62.57
12991;BME280;6560;57.692;11.958;2023-08-12T10:17:02;101279.44;;;39.75;62.55
12991;BME280;6560;57.692;11.958;2023-08-12T10:19:28;101280.88;;;40.35;61.17
12991;BME280;6560;57.692;11.958;2023-08-12T10:21:55;101279.34;;;40.03;62.19
12991;BME280;6560;57.692;11.958;2023-08-12T10:24:26;101268.47;;;40.45;60.81
12991;BME280;6560;57.692;11.958;2023-08-12T10:26:52;101274.00;;;41.34;58.31
12991;BME280;6560;57.692;11.958;2023-08-12T10:29:20;101261.50;;;41.86;56.83
12991;BME280;6560;57.692;11.958;2023-08-12T10:31:49;101260.06;;;40.48;58.62
12991;BME280;6560;57.692;11.958;2023-08-12T10:34:25;101256.91;;;40.11;57.47
12991;BME280;6560;57.692;11.958;2023-08-12T10:37:07;101263.66;;;40.50;58.97
12991;BME280;6560;57.692;11.958;2023-08-12T10:39:37;101255.81;;;40.85;59.30
12991;BME280;6560;57.692;11.958;2023-08-12T10:42:05;101272.59;;;41.24;59.64
12991;BME280;6560;57.692;11.958;2023-08-12T10:44:50;101265.75;;;41.32;56.26
12991;BME280;6560;57.692;11.958;2023-08-12T10:47:17;101260.28;;;41.73;57.16
12991;BME280;6560;57.692;11.958;2023-08-12T10:49:47;101238.44;;;42.25;55.78
12991;BME280;6560;57.692;11.958;2023-08-12T10:52:31;101263.22;;;41.48;55.90
12991;BME280;6560;57.692;11.958;2023-08-12T10:55:19;101266.03;;;43.39;51.61
12991;BME280;6560;57.692;11.958;2023-08-12T10:57:46;101262.03;;;44.44;51.27
12991;BME280;6560;57.692;11.958;2023-08-12T11:00:32;101250.41;;;44.21;48.90
12991;BME280;6560;57.692;11.958;2023-08-12T11:02:58;101251.66;;;42.76;52.68
12991;BME280;6560;57.692;11.958;2023-08-12T11:05:24;101257.16;;;42.59;52.32
12991;BME280;6560;57.692;11.958;2023-08-12T11:08:04;101250.38;;;42.83;51.54
12991;BME280;6560;57.692;11.958;2023-08-12T11:10:33;101241.16;;;42.82;53.10
12991;BME280;6560;57.692;11.958;2023-08-12T11:13:00;101244.47;;;43.44;52.01
12991;BME280;6560;57.692;11.958;2023-08-12T11:15:35;101235.25;;;43.07;51.36
12991;BME280;6560;57.692;11.958;2023-08-12T11:18:07;101245.78;;;41.87;52.93
12991;BME280;6560;57.692;11.958;2023-08-12T11:20:36;101245.31;;;41.97;53.44
12991;BME280;6560;57.692;11.958;2023-08-12T11:23:06;101237.41;;;42.65;52.43
12991;BME280;6560;57.692;11.958;2023-08-12T11:25:32;101236.84;;;42.94;51.03
12991;BME280;6560;57.692;11.958;2023-08-12T11:27:58;101223.22;;;42.89;51.06
12991;BME280;6560;57.692;11.958;2023-08-12T11:30:25;101236.84;;;42.94;50.59
12991;BME280;6560;57.692;11.958;2023-08-12T11:32:53;101228.44;;;42.96;50.96
12991;BME280;6560;57.692;11.958;2023-08-12T11:35:20;101236.44;;;42.84;51.34
12991;BME280;6560;57.692;11.958;2023-08-12T11:37:48;101210.13;;;42.74;50.79
12991;BME280;6560;57.692;11.958;2023-08-12T11:40:16;101238.25;;;42.67;49.83
12991;BME280;6560;57.692;11.958;2023-08-12T11:42:47;101232.06;;;42.04;51.08
12991;BME280;6560;57.692;11.958;2023-08-12T11:45:15;101221.09;;;42.40;50.75
12991;BME280;6560;57.692;11.958;2023-08-12T11:47:41;101230.88;;;43.20;48.72
12991;BME280;6560;57.692;11.958;2023-08-12T11:50:09;101228.41;;;42.41;50.14
12991;BME280;6560;57.692;11.958;2023-08-12T11:52:36;101238.00;;;43.95;48.17
12991;BME280;6560;57.692;11.958;2023-08-12T11:55:03;101236.78;;;44.96;46.69
12991;BME280;6560;57.692;11.958;2023-08-12T11:57:28;101236.25;;;45.35;45.93
12991;BME280;6560;57.692;11.958;2023-08-12T11:59:59;101241.22;;;43.00;49.01
12991;BME280;6560;57.692;11.958;2023-08-12T12:02:26;101215.16;;;42.85;49.76
12991;BME280;6560;57.692;11.958;2023-08-12T12:04:53;101233.28;;;43.62;48.71
12991;BME280;6560;57.692;11.958;2023-08-12T12:07:19;101237.88;;;42.74;49.97
12991;BME280;6560;57.692;11.958;2023-08-12T12:09:46;101222.50;;;43.03;49.54
12991;BME280;6560;57.692;11.958;2023-08-12T12:12:13;101226.59;;;42.02;51.55
12991;BME280;6560;57.692;11.958;2023-08-12T12:14:41;101216.56;;;42.00;51.45
12991;BME280;6560;57.692;11.958;2023-08-12T12:17:10;101211.03;;;44.13;48.31
12991;BME280;6560;57.692;11.958;2023-08-12T12:19:40;101212.59;;;42.62;49.77
12991;BME280;6560;57.692;11.958;2023-08-12T12:22:06;101223.13;;;42.36;49.72
12991;BME280;6560;57.692;11.958;2023-08-12T12:24:43;101182.69;;;43.21;48.52
12991;BME280;6560;57.692;11.958;2023-08-12T12:27:11;101199.53;;;43.53;47.66
12991;BME280;6560;57.692;11.958;2023-08-12T12:29:36;101206.63;;;44.57;46.06
12991;BME280;6560;57.692;11.958;2023-08-12T12:32:03;101200.13;;;42.89;48.34
12991;BME280;6560;57.692;11.958;2023-08-12T12:34:29;101209.47;;;43.05;46.54
12991;BME280;6560;57.692;11.958;2023-08-12T12:36:55;101210.63;;;40.63;49.96
12991;BME280;6560;57.692;11.958;2023-08-12T12:39:20;101188.31;;;41.71;50.81
12991;BME280;6560;57.692;11.958;2023-08-12T12:41:48;101207.78;;;39.96;52.24
12991;BME280;6560;57.692;11.958;2023-08-12T12:44:14;101179.25;;;39.95;52.44
12991;BME280;6560;57.692;11.958;2023-08-12T12:46:40;101213.31;;;41.70;48.95
12991;BME280;6560;57.692;11.958;2023-08-12T12:49:05;101197.91;;;43.31;48.33
12991;BME280;6560;57.692;11.958;2023-08-12T12:51:31;101217.16;;;40.38;52.13